FW6260 Weather Reports


Display with metric or nautical units.
time (UTC)temp
F
wind
direction
speed
MPH
gust
MPH
rain 1hr
in
rain 24hr
in
rain mn
in
humidity
%
barometer
mb
20240717093045 73 249 2.0 6.0 0.00 0.00 0.00 56 1022.0
20240717090134 71 183 1.0 4.0 0.00 0.00 0.00 60 1022.0
20240717080114 66 143 0.0 2.0 0.00 0.00 0.00 71 1022.0
20240717073045 66 132 0.0 1.0 0.00 0.00 0.00 74 1022.1
20240717070114 65 0.0 0.0 0.00 0.00 0.00 77 1022.1
20240717063046 61 141 0.0 1.0 0.00 0.00 0.00 86 1021.7
20240717060115 60 115 0.0 2.0 0.00 0.00 0.00 89 1021.5
20240717053047 59 124 0.0 1.0 0.00 0.00 0.00 89 1021.3
20240717050016 58 140 0.0 2.0 0.00 0.00 0.00 91 1021.1
20240717043048 57 144 0.0 2.0 0.00 0.00 0.00 93 1021.0
20240717040017 57 145 0.0 2.0 0.00 0.00 0.00 93 1020.8
20240717033049 56 128 0.0 2.0 0.00 0.00 0.00 93 1020.5
20240717030019 56 142 0.0 2.0 0.00 0.00 0.00 94 1020.4
20240717023050 56 0.0 0.0 0.00 0.00 0.00 94 1020.0
20240717020040 56 0.0 1.0 0.00 0.00 0.00 94 1019.9
20240717010023 57 120 0.0 1.0 0.00 0.05 0.00 92 1019.9
20240717003054 58 129 0.0 2.0 0.00 0.14 0.00 92 1019.8
20240717000024 59 136 0.0 1.0 0.00 0.18 0.00 91 1019.8
20240716233053 59 121 0.0 1.0 0.00 0.19 0.00 89 1019.5
20240716230023 60 140 0.0 2.0 0.00 0.19 0.00 88 1019.6
20240716223056 61 119 0.0 1.0 0.00 0.19 0.00 87 1019.4
20240716220026 61 131 0.0 1.0 0.00 0.19 0.00 87 1019.2
20240716213057 62 123 0.0 1.0 0.00 0.19 0.19 86 1018.8
20240716210027 62 139 0.0 1.0 0.00 0.19 0.19 85 1018.7
20240716203056 64 131 0.0 1.0 0.00 0.19 0.19 82 1018.6
20240716200048 65 0.0 1.0 0.00 0.19 0.19 78 1018.3
20240716190029 69 0.0 1.0 0.00 0.19 0.19 73 1017.4
20240716183101 72 139 0.0 2.0 0.00 0.19 0.19 65 1017.0
20240716180030 75 152 1.0 4.0 0.00 0.19 0.19 59 1016.7
20240716173103 76 260 2.0 8.0 0.00 0.19 0.19 58 1016.4
20240716170031 75 252 2.0 6.0 0.00 0.19 0.19 64 1016.1
20240716163104 75 216 2.0 8.0 0.00 0.19 0.19 63 1015.9
20240716160054 75 189 1.0 7.0 0.00 0.19 0.19 66 1015.9
20240716150035 72 134 1.0 6.0 0.00 0.19 0.19 72 1016.0
20240716143107 74 152 1.0 6.0 0.00 0.19 0.19 68 1015.8
20240716140036 75 163 1.0 6.0 0.00 0.19 0.19 64 1015.6
20240716133106 76 183 1.0 6.0 0.00 0.19 0.19 62 1015.7
20240716130037 77 172 1.0 4.0 0.00 0.19 0.19 63 1015.8
20240716123109 76 204 1.0 4.0 0.00 0.19 0.19 65 1015.9
20240716120038 75 185 1.0 6.0 0.00 0.19 0.19 68 1016.1
20240716113110 74 150 1.0 6.0 0.00 0.19 0.19 68 1016.1
20240716110059 74 183 1.0 8.0 0.00 0.19 0.19 69 1016.2
20240716100040 70 109 1.0 6.0 0.00 0.19 0.19 77 1016.1